Terminal Aerodrome Forecast
Issued by NWS Goodland, KS

Current Version | Previous Version | Text Only | Print | Product List | Glossary On
Versions: 1 2 3 4 5 6 7 8 9 10 11 12 13 14
000
FTUS43 KGLD 282336
TAFGLD
TAF
KGLD 282336Z 2900/2924 23010KT P6SM SKC
     FM290200 19010KT P6SM SKC
     FM290600 23012G19KT P6SM FEW100
     FM290800 34017G24KT P6SM FEW250
     FM291300 35022G32KT P6SM SKC
     FM292100 36011KT P6SM SKC=

USA.gov is the U.S. government's official web portal to all federal, state and local government web resources and services.